sensor_id;sensor_type;location;lat;lon;timestamp;P1;durP1;ratioP1;P2;durP2;ratioP2
313;SDS011;143;51.634;7.112;2022-08-25T00:00:36;5.57;;;2.70;;
313;SDS011;143;51.634;7.112;2022-08-25T00:03:04;5.60;;;2.50;;
313;SDS011;143;51.634;7.112;2022-08-25T00:05:30;5.40;;;2.90;;
313;SDS011;143;51.634;7.112;2022-08-25T00:07:56;15.43;;;2.90;;
313;SDS011;143;51.634;7.112;2022-08-25T00:10:22;9.97;;;3.17;;
313;SDS011;143;51.634;7.112;2022-08-25T00:12:48;13.93;;;2.77;;
313;SDS011;143;51.634;7.112;2022-08-25T00:15:14;6.93;;;2.80;;
313;SDS011;143;51.634;7.112;2022-08-25T00:17:39;5.13;;;2.90;;
313;SDS011;143;51.634;7.112;2022-08-25T00:20:05;5.27;;;2.97;;
313;SDS011;143;51.634;7.112;2022-08-25T00:22:33;5.23;;;3.20;;
313;SDS011;143;51.634;7.112;2022-08-25T00:24:59;7.20;;;2.70;;
313;SDS011;143;51.634;7.112;2022-08-25T00:27:25;5.53;;;2.70;;
313;SDS011;143;51.634;7.112;2022-08-25T00:29:51;7.47;;;3.20;;
313;SDS011;143;51.634;7.112;2022-08-25T00:32:17;5.07;;;2.97;;
313;SDS011;143;51.634;7.112;2022-08-25T00:34:43;3.90;;;3.00;;
313;SDS011;143;51.634;7.112;2022-08-25T00:37:09;8.40;;;3.03;;
313;SDS011;143;51.634;7.112;2022-08-25T00:39:35;8.07;;;2.87;;
313;SDS011;143;51.634;7.112;2022-08-25T00:42:02;6.73;;;3.03;;
313;SDS011;143;51.634;7.112;2022-08-25T00:44:29;8.37;;;3.03;;
313;SDS011;143;51.634;7.112;2022-08-25T00:46:58;8.03;;;3.00;;
313;SDS011;143;51.634;7.112;2022-08-25T00:52:07;8.20;;;3.40;;
313;SDS011;143;51.634;7.112;2022-08-25T00:54:43;7.77;;;3.03;;
313;SDS011;143;51.634;7.112;2022-08-25T00:57:17;6.20;;;2.83;;
313;SDS011;143;51.634;7.112;2022-08-25T00:59:49;9.00;;;3.03;;
313;SDS011;143;51.634;7.112;2022-08-25T01:02:15;6.20;;;3.20;;
313;SDS011;143;51.634;7.112;2022-08-25T01:04:42;6.70;;;3.50;;
313;SDS011;143;51.634;7.112;2022-08-25T01:07:08;8.40;;;3.20;;
313;SDS011;143;51.634;7.112;2022-08-25T01:09:35;4.77;;;2.57;;
313;SDS011;143;51.634;7.112;2022-08-25T01:12:01;8.30;;;3.10;;
313;SDS011;143;51.634;7.112;2022-08-25T01:14:27;5.80;;;3.20;;
313;SDS011;143;51.634;7.112;2022-08-25T01:16:56;4.80;;;2.67;;
313;SDS011;143;51.634;7.112;2022-08-25T01:19:23;15.60;;;3.73;;
313;SDS011;143;51.634;7.112;2022-08-25T01:21:51;10.30;;;3.13;;
313;SDS011;143;51.634;7.112;2022-08-25T01:26:55;9.20;;;3.40;;
313;SDS011;143;51.634;7.112;2022-08-25T01:29:22;10.53;;;3.73;;
313;SDS011;143;51.634;7.112;2022-08-25T01:31:51;5.87;;;3.23;;
313;SDS011;143;51.634;7.112;2022-08-25T01:34:23;3.10;;;2.50;;
313;SDS011;143;51.634;7.112;2022-08-25T01:36:50;5.27;;;3.10;;
313;SDS011;143;51.634;7.112;2022-08-25T01:39:16;4.33;;;2.77;;
313;SDS011;143;51.634;7.112;2022-08-25T01:41:53;9.43;;;4.30;;
313;SDS011;143;51.634;7.112;2022-08-25T01:44:32;5.20;;;3.30;;
313;SDS011;143;51.634;7.112;2022-08-25T01:47:00;7.53;;;2.40;;
313;SDS011;143;51.634;7.112;2022-08-25T01:49:26;5.93;;;2.70;;
313;SDS011;143;51.634;7.112;2022-08-25T01:51:55;5.37;;;3.30;;
313;SDS011;143;51.634;7.112;2022-08-25T01:54:24;4.80;;;2.50;;
313;SDS011;143;51.634;7.112;2022-08-25T01:56:50;5.03;;;3.37;;
313;SDS011;143;51.634;7.112;2022-08-25T01:59:16;5.43;;;2.83;;
313;SDS011;143;51.634;7.112;2022-08-25T02:01:44;7.33;;;3.33;;
313;SDS011;143;51.634;7.112;2022-08-25T02:04:10;9.90;;;3.20;;
313;SDS011;143;51.634;7.112;2022-08-25T02:06:36;9.37;;;2.70;;
313;SDS011;143;51.634;7.112;2022-08-25T02:09:05;6.50;;;2.80;;
313;SDS011;143;51.634;7.112;2022-08-25T02:11:34;5.47;;;3.37;;
313;SDS011;143;51.634;7.112;2022-08-25T02:14:01;7.67;;;2.53;;
313;SDS011;143;51.634;7.112;2022-08-25T02:16:28;10.40;;;2.53;;
313;SDS011;143;51.634;7.112;2022-08-25T02:18:56;3.53;;;2.47;;
313;SDS011;143;51.634;7.112;2022-08-25T02:21:23;4.10;;;2.70;;
313;SDS011;143;51.634;7.112;2022-08-25T02:23:49;5.90;;;2.77;;
313;SDS011;143;51.634;7.112;2022-08-25T02:26:15;4.50;;;2.77;;
313;SDS011;143;51.634;7.112;2022-08-25T02:28:43;8.10;;;2.83;;
313;SDS011;143;51.634;7.112;2022-08-25T02:31:10;5.13;;;2.97;;
313;SDS011;143;51.634;7.112;2022-08-25T02:33:36;10.47;;;2.70;;
313;SDS011;143;51.634;7.112;2022-08-25T02:36:03;6.63;;;2.50;;
313;SDS011;143;51.634;7.112;2022-08-25T02:38:29;6.23;;;3.13;;
313;SDS011;143;51.634;7.112;2022-08-25T02:40:55;6.30;;;2.77;;
313;SDS011;143;51.634;7.112;2022-08-25T02:43:22;6.30;;;3.10;;
313;SDS011;143;51.634;7.112;2022-08-25T02:45:50;4.80;;;3.37;;
313;SDS011;143;51.634;7.112;2022-08-25T02:48:16;6.10;;;3.03;;
313;SDS011;143;51.634;7.112;2022-08-25T02:50:49;5.57;;;2.83;;
313;SDS011;143;51.634;7.112;2022-08-25T02:53:16;6.70;;;2.73;;
313;SDS011;143;51.634;7.112;2022-08-25T02:55:43;6.20;;;2.93;;
313;SDS011;143;51.634;7.112;2022-08-25T02:58:08;5.90;;;2.80;;
313;SDS011;143;51.634;7.112;2022-08-25T03:00:34;8.43;;;2.67;;
313;SDS011;143;51.634;7.112;2022-08-25T03:03:00;8.13;;;2.80;;
313;SDS011;143;51.634;7.112;2022-08-25T03:05:26;5.50;;;2.77;;
313;SDS011;143;51.634;7.112;2022-08-25T03:07:52;7.63;;;3.30;;
313;SDS011;143;51.634;7.112;2022-08-25T03:10:18;8.60;;;2.60;;
313;SDS011;143;51.634;7.112;2022-08-25T03:12:44;8.40;;;3.37;;
313;SDS011;143;51.634;7.112;2022-08-25T03:15:11;5.70;;;3.10;;
313;SDS011;143;51.634;7.112;2022-08-25T03:17:42;7.50;;;4.10;;
313;SDS011;143;51.634;7.112;2022-08-25T03:20:08;7.43;;;3.17;;
313;SDS011;143;51.634;7.112;2022-08-25T03:22:34;7.33;;;2.87;;
313;SDS011;143;51.634;7.112;2022-08-25T03:25:00;6.23;;;2.90;;
313;SDS011;143;51.634;7.112;2022-08-25T03:27:45;6.43;;;3.70;;
313;SDS011;143;51.634;7.112;2022-08-25T03:30:11;8.53;;;3.30;;
313;SDS011;143;51.634;7.112;2022-08-25T03:32:37;9.73;;;3.43;;
313;SDS011;143;51.634;7.112;2022-08-25T03:35:04;8.37;;;3.73;;
313;SDS011;143;51.634;7.112;2022-08-25T03:37:30;5.60;;;2.77;;
313;SDS011;143;51.634;7.112;2022-08-25T03:39:55;5.13;;;3.00;;
313;SDS011;143;51.634;7.112;2022-08-25T03:42:21;6.50;;;3.40;;
313;SDS011;143;51.634;7.112;2022-08-25T03:44:47;8.37;;;3.27;;
313;SDS011;143;51.634;7.112;2022-08-25T03:47:13;5.80;;;3.10;;
313;SDS011;143;51.634;7.112;2022-08-25T03:49:40;6.93;;;3.50;;
313;SDS011;143;51.634;7.112;2022-08-25T03:52:05;5.93;;;3.27;;
313;SDS011;143;51.634;7.112;2022-08-25T03:54:31;5.47;;;3.30;;
313;SDS011;143;51.634;7.112;2022-08-25T03:56:57;7.73;;;3.07;;
313;SDS011;143;51.634;7.112;2022-08-25T03:59:23;5.20;;;2.90;;
313;SDS011;143;51.634;7.112;2022-08-25T04:01:49;4.97;;;3.20;;
313;SDS011;143;51.634;7.112;2022-08-25T04:04:15;15.07;;;4.10;;
313;SDS011;143;51.634;7.112;2022-08-25T04:06:41;7.10;;;3.40;;
313;SDS011;143;51.634;7.112;2022-08-25T04:09:08;8.90;;;3.53;;
313;SDS011;143;51.634;7.112;2022-08-25T04:11:35;8.07;;;3.30;;
313;SDS011;143;51.634;7.112;2022-08-25T04:14:01;5.47;;;3.33;;
313;SDS011;143;51.634;7.112;2022-08-25T04:16:28;5.30;;;3.00;;
313;SDS011;143;51.634;7.112;2022-08-25T04:18:56;9.63;;;3.40;;
313;SDS011;143;51.634;7.112;2022-08-25T04:21:24;6.00;;;2.80;;
313;SDS011;143;51.634;7.112;2022-08-25T04:23:51;5.00;;;3.60;;
313;SDS011;143;51.634;7.112;2022-08-25T04:26:19;7.00;;;3.33;;
313;SDS011;143;51.634;7.112;2022-08-25T04:28:51;5.40;;;3.40;;
313;SDS011;143;51.634;7.112;2022-08-25T04:31:18;15.40;;;4.17;;
313;SDS011;143;51.634;7.112;2022-08-25T04:33:45;3.60;;;3.00;;
313;SDS011;143;51.634;7.112;2022-08-25T04:36:12;7.27;;;3.33;;
313;SDS011;143;51.634;7.112;2022-08-25T04:38:40;14.97;;;3.10;;
313;SDS011;143;51.634;7.112;2022-08-25T04:41:08;10.13;;;3.50;;
313;SDS011;143;51.634;7.112;2022-08-25T04:43:35;10.07;;;3.93;;
313;SDS011;143;51.634;7.112;2022-08-25T04:46:09;6.80;;;3.10;;
313;SDS011;143;51.634;7.112;2022-08-25T04:48:42;6.20;;;3.20;;
313;SDS011;143;51.634;7.112;2022-08-25T04:51:10;14.10;;;3.60;;
313;SDS011;143;51.634;7.112;2022-08-25T04:53:37;7.87;;;3.30;;
313;SDS011;143;51.634;7.112;2022-08-25T04:56:05;6.20;;;3.70;;
313;SDS011;143;51.634;7.112;2022-08-25T04:58:33;8.60;;;3.03;;
313;SDS011;143;51.634;7.112;2022-08-25T05:01:06;6.53;;;3.93;;
313;SDS011;143;51.634;7.112;2022-08-25T05:03:36;7.43;;;3.70;;
313;SDS011;143;51.634;7.112;2022-08-25T05:06:02;7.60;;;3.37;;
313;SDS011;143;51.634;7.112;2022-08-25T05:08:29;7.50;;;3.70;;
313;SDS011;143;51.634;7.112;2022-08-25T05:10:55;10.83;;;3.70;;
313;SDS011;143;51.634;7.112;2022-08-25T05:13:22;5.63;;;3.10;;
313;SDS011;143;51.634;7.112;2022-08-25T05:15:53;3.70;;;2.93;;
313;SDS011;143;51.634;7.112;2022-08-25T05:18:21;7.90;;;4.17;;
313;SDS011;143;51.634;7.112;2022-08-25T05:20:48;6.10;;;3.80;;
313;SDS011;143;51.634;7.112;2022-08-25T05:23:15;7.90;;;3.70;;
313;SDS011;143;51.634;7.112;2022-08-25T05:25:41;23.37;;;4.37;;
313;SDS011;143;51.634;7.112;2022-08-25T05:28:08;6.07;;;3.83;;
313;SDS011;143;51.634;7.112;2022-08-25T05:30:36;8.80;;;4.13;;
313;SDS011;143;51.634;7.112;2022-08-25T05:33:03;7.47;;;3.90;;
313;SDS011;143;51.634;7.112;2022-08-25T05:35:29;8.60;;;3.90;;
313;SDS011;143;51.634;7.112;2022-08-25T05:37:54;8.00;;;4.67;;
313;SDS011;143;51.634;7.112;2022-08-25T05:40:21;7.80;;;3.83;;
313;SDS011;143;51.634;7.112;2022-08-25T05:42:48;7.47;;;3.73;;
313;SDS011;143;51.634;7.112;2022-08-25T05:45:14;7.03;;;3.80;;
313;SDS011;143;51.634;7.112;2022-08-25T05:47:42;7.27;;;3.90;;
313;SDS011;143;51.634;7.112;2022-08-25T05:50:08;9.93;;;5.40;;
313;SDS011;143;51.634;7.112;2022-08-25T05:52:34;8.83;;;3.70;;
313;SDS011;143;51.634;7.112;2022-08-25T05:55:00;4.33;;;3.57;;
313;SDS011;143;51.634;7.112;2022-08-25T05:57:25;6.87;;;4.37;;
313;SDS011;143;51.634;7.112;2022-08-25T05:59:51;8.73;;;3.73;;
313;SDS011;143;51.634;7.112;2022-08-25T06:02:17;12.30;;;4.63;;
313;SDS011;143;51.634;7.112;2022-08-25T06:05:01;9.23;;;4.30;;
313;SDS011;143;51.634;7.112;2022-08-25T06:07:27;5.43;;;3.80;;
313;SDS011;143;51.634;7.112;2022-08-25T06:09:53;10.87;;;5.00;;
313;SDS011;143;51.634;7.112;2022-08-25T06:12:19;14.13;;;4.17;;
313;SDS011;143;51.634;7.112;2022-08-25T06:14:45;9.07;;;4.10;;
313;SDS011;143;51.634;7.112;2022-08-25T06:17:13;11.80;;;4.20;;
313;SDS011;143;51.634;7.112;2022-08-25T06:19:39;14.57;;;4.63;;
313;SDS011;143;51.634;7.112;2022-08-25T06:22:05;8.97;;;4.60;;
313;SDS011;143;51.634;7.112;2022-08-25T06:24:31;5.27;;;3.87;;
313;SDS011;143;51.634;7.112;2022-08-25T06:26:57;10.93;;;4.47;;
313;SDS011;143;51.634;7.112;2022-08-25T06:29:23;9.17;;;4.50;;
313;SDS011;143;51.634;7.112;2022-08-25T06:31:49;6.10;;;4.27;;
313;SDS011;143;51.634;7.112;2022-08-25T06:34:15;15.80;;;4.90;;
313;SDS011;143;51.634;7.112;2022-08-25T06:36:42;6.23;;;4.10;;
313;SDS011;143;51.634;7.112;2022-08-25T06:39:08;11.57;;;4.00;;
313;SDS011;143;51.634;7.112;2022-08-25T06:41:34;10.73;;;4.50;;
313;SDS011;143;51.634;7.112;2022-08-25T06:44:01;9.83;;;4.43;;
313;SDS011;143;51.634;7.112;2022-08-25T06:46:27;12.07;;;4.20;;
313;SDS011;143;51.634;7.112;2022-08-25T06:48:54;5.90;;;4.17;;
313;SDS011;143;51.634;7.112;2022-08-25T06:51:21;8.73;;;3.90;;
313;SDS011;143;51.634;7.112;2022-08-25T06:53:49;9.27;;;4.03;;
313;SDS011;143;51.634;7.112;2022-08-25T06:56:17;7.47;;;5.00;;
313;SDS011;143;51.634;7.112;2022-08-25T06:58:43;13.67;;;4.50;;
313;SDS011;143;51.634;7.112;2022-08-25T07:01:12;10.70;;;4.53;;
313;SDS011;143;51.634;7.112;2022-08-25T07:03:40;11.30;;;4.40;;
313;SDS011;143;51.634;7.112;2022-08-25T07:06:06;7.93;;;3.90;;
313;SDS011;143;51.634;7.112;2022-08-25T07:08:32;9.93;;;4.33;;
313;SDS011;143;51.634;7.112;2022-08-25T07:11:09;19.73;;;4.33;;
313;SDS011;143;51.634;7.112;2022-08-25T07:13:36;11.97;;;4.57;;
313;SDS011;143;51.634;7.112;2022-08-25T07:16:02;10.20;;;4.87;;
313;SDS011;143;51.634;7.112;2022-08-25T07:18:29;14.17;;;4.40;;
313;SDS011;143;51.634;7.112;2022-08-25T07:20:56;11.30;;;4.70;;
313;SDS011;143;51.634;7.112;2022-08-25T07:23:22;8.03;;;5.13;;
313;SDS011;143;51.634;7.112;2022-08-25T07:25:48;6.43;;;3.97;;
313;SDS011;143;51.634;7.112;2022-08-25T07:28:14;10.20;;;4.73;;
313;SDS011;143;51.634;7.112;2022-08-25T07:30:41;9.03;;;4.80;;
313;SDS011;143;51.634;7.112;2022-08-25T07:33:07;14.13;;;4.20;;
313;SDS011;143;51.634;7.112;2022-08-25T07:35:33;7.60;;;4.60;;
313;SDS011;143;51.634;7.112;2022-08-25T07:38:02;9.60;;;4.30;;
313;SDS011;143;51.634;7.112;2022-08-25T07:40:33;8.60;;;4.07;;
313;SDS011;143;51.634;7.112;2022-08-25T07:43:02;11.13;;;5.20;;
313;SDS011;143;51.634;7.112;2022-08-25T07:45:32;9.10;;;3.50;;
313;SDS011;143;51.634;7.112;2022-08-25T07:48:01;8.00;;;4.40;;
313;SDS011;143;51.634;7.112;2022-08-25T07:50:30;12.73;;;6.30;;
313;SDS011;143;51.634;7.112;2022-08-25T07:52:56;8.23;;;4.13;;
313;SDS011;143;51.634;7.112;2022-08-25T07:55:23;16.50;;;4.90;;
313;SDS011;143;51.634;7.112;2022-08-25T07:57:50;7.30;;;4.03;;
313;SDS011;143;51.634;7.112;2022-08-25T08:00:16;17.03;;;4.70;;
313;SDS011;143;51.634;7.112;2022-08-25T08:02:42;7.63;;;4.67;;
313;SDS011;143;51.634;7.112;2022-08-25T08:05:08;6.77;;;4.20;;
313;SDS011;143;51.634;7.112;2022-08-25T08:07:35;8.23;;;5.20;;
313;SDS011;143;51.634;7.112;2022-08-25T08:10:02;9.00;;;4.70;;
313;SDS011;143;51.634;7.112;2022-08-25T08:12:29;13.80;;;4.93;;
313;SDS011;143;51.634;7.112;2022-08-25T08:14:54;16.23;;;5.03;;
313;SDS011;143;51.634;7.112;2022-08-25T08:17:22;13.10;;;5.80;;
313;SDS011;143;51.634;7.112;2022-08-25T08:19:48;9.90;;;4.60;;
313;SDS011;143;51.634;7.112;2022-08-25T08:22:14;6.70;;;3.97;;
313;SDS011;143;51.634;7.112;2022-08-25T08:24:40;7.73;;;4.03;;
313;SDS011;143;51.634;7.112;2022-08-25T08:27:08;8.43;;;5.17;;
313;SDS011;143;51.634;7.112;2022-08-25T08:29:36;10.50;;;4.60;;
313;SDS011;143;51.634;7.112;2022-08-25T08:32:04;8.93;;;5.10;;
313;SDS011;143;51.634;7.112;2022-08-25T08:34:31;7.07;;;3.97;;
313;SDS011;143;51.634;7.112;2022-08-25T08:36:57;10.33;;;4.63;;
313;SDS011;143;51.634;7.112;2022-08-25T08:39:24;8.20;;;5.33;;
313;SDS011;143;51.634;7.112;2022-08-25T08:52:39;7.70;;;4.50;;
313;SDS011;143;51.634;7.112;2022-08-25T08:55:24;7.23;;;4.53;;
313;SDS011;143;51.634;7.112;2022-08-25T08:58:02;8.00;;;4.00;;
313;SDS011;143;51.634;7.112;2022-08-25T09:00:39;14.10;;;4.83;;
313;SDS011;143;51.634;7.112;2022-08-25T09:03:30;10.57;;;4.27;;
313;SDS011;143;51.634;7.112;2022-08-25T09:06:37;8.07;;;4.63;;
313;SDS011;143;51.634;7.112;2022-08-25T09:09:10;10.00;;;4.47;;
313;SDS011;143;51.634;7.112;2022-08-25T09:23:02;10.60;;;4.63;;
313;SDS011;143;51.634;7.112;2022-08-25T09:28:27;5.37;;;4.00;;
313;SDS011;143;51.634;7.112;2022-08-25T09:31:04;6.20;;;4.07;;
313;SDS011;143;51.634;7.112;2022-08-25T09:33:45;5.67;;;4.40;;
313;SDS011;143;51.634;7.112;2022-08-25T09:36:11;8.63;;;3.97;;
313;SDS011;143;51.634;7.112;2022-08-25T09:38:37;6.13;;;3.67;;
313;SDS011;143;51.634;7.112;2022-08-25T09:41:04;5.23;;;3.90;;
313;SDS011;143;51.634;7.112;2022-08-25T09:43:33;4.97;;;3.60;;
313;SDS011;143;51.634;7.112;2022-08-25T09:48:30;9.63;;;4.20;;
313;SDS011;143;51.634;7.112;2022-08-25T09:51:09;6.57;;;3.73;;
313;SDS011;143;51.634;7.112;2022-08-25T09:53:47;7.10;;;4.03;;
313;SDS011;143;51.634;7.112;2022-08-25T09:56:24;8.67;;;4.60;;
313;SDS011;143;51.634;7.112;2022-08-25T09:58:52;10.93;;;3.93;;
313;SDS011;143;51.634;7.112;2022-08-25T10:01:21;8.43;;;3.90;;
313;SDS011;143;51.634;7.112;2022-08-25T10:04:03;8.40;;;4.13;;
313;SDS011;143;51.634;7.112;2022-08-25T10:06:51;10.80;;;3.93;;
313;SDS011;143;51.634;7.112;2022-08-25T10:09:24;7.80;;;3.80;;
313;SDS011;143;51.634;7.112;2022-08-25T10:11:53;10.93;;;4.27;;
313;SDS011;143;51.634;7.112;2022-08-25T10:14:36;5.30;;;3.80;;
313;SDS011;143;51.634;7.112;2022-08-25T10:17:22;5.70;;;4.00;;
313;SDS011;143;51.634;7.112;2022-08-25T10:19:51;8.03;;;4.20;;
313;SDS011;143;51.634;7.112;2022-08-25T10:22:36;7.93;;;4.10;;
313;SDS011;143;51.634;7.112;2022-08-25T10:25:05;7.30;;;3.43;;
313;SDS011;143;51.634;7.112;2022-08-25T10:38:49;4.60;;;3.50;;
313;SDS011;143;51.634;7.112;2022-08-25T10:46:32;6.90;;;4.63;;
313;SDS011;143;51.634;7.112;2022-08-25T10:49:18;7.43;;;4.03;;
313;SDS011;143;51.634;7.112;2022-08-25T10:51:52;7.67;;;4.13;;
313;SDS011;143;51.634;7.112;2022-08-25T10:54:24;5.43;;;3.60;;
313;SDS011;143;51.634;7.112;2022-08-25T11:05:11;11.40;;;3.93;;
313;SDS011;143;51.634;7.112;2022-08-25T11:08:05;6.77;;;3.93;;
313;SDS011;143;51.634;7.112;2022-08-25T11:13:30;7.60;;;4.97;;
313;SDS011;143;51.634;7.112;2022-08-25T11:16:13;12.40;;;4.13;;
313;SDS011;143;51.634;7.112;2022-08-25T11:18:45;8.07;;;4.20;;
313;SDS011;143;51.634;7.112;2022-08-25T11:21:22;7.07;;;3.50;;
313;SDS011;143;51.634;7.112;2022-08-25T11:24:13;5.83;;;3.80;;
313;SDS011;143;51.634;7.112;2022-08-25T11:27:00;7.20;;;4.60;;
313;SDS011;143;51.634;7.112;2022-08-25T11:29:30;6.23;;;4.50;;
313;SDS011;143;51.634;7.112;2022-08-25T11:32:00;7.07;;;4.80;;
313;SDS011;143;51.634;7.112;2022-08-25T11:34:32;5.70;;;4.10;;
313;SDS011;143;51.634;7.112;2022-08-25T11:37:02;7.67;;;4.80;;
313;SDS011;143;51.634;7.112;2022-08-25T11:42:45;9.17;;;4.50;;
313;SDS011;143;51.634;7.112;2022-08-25T11:53:41;10.07;;;4.60;;
313;SDS011;143;51.634;7.112;2022-08-25T11:56:11;5.97;;;4.77;;
313;SDS011;143;51.634;7.112;2022-08-25T11:58:55;7.00;;;5.43;;
313;SDS011;143;51.634;7.112;2022-08-25T12:07:15;6.80;;;4.90;;
313;SDS011;143;51.634;7.112;2022-08-25T12:09:30;9.87;;;4.80;;
313;SDS011;143;51.634;7.112;2022-08-25T12:11:57;8.70;;;5.23;;
313;SDS011;143;51.634;7.112;2022-08-25T12:32:32;8.97;;;5.30;;
313;SDS011;143;51.634;7.112;2022-08-25T12:37:54;8.53;;;5.03;;
313;SDS011;143;51.634;7.112;2022-08-25T12:40:52;7.20;;;4.37;;
313;SDS011;143;51.634;7.112;2022-08-25T12:43:24;5.83;;;4.37;;
313;SDS011;143;51.634;7.112;2022-08-25T12:46:35;7.70;;;5.33;;
313;SDS011;143;51.634;7.112;2022-08-25T12:56:37;8.63;;;4.10;;
313;SDS011;143;51.634;7.112;2022-08-25T13:07:23;9.10;;;5.10;;
313;SDS011;143;51.634;7.112;2022-08-25T13:12:35;9.40;;;3.87;;
313;SDS011;143;51.634;7.112;2022-08-25T13:15:15;8.73;;;4.40;;
313;SDS011;143;51.634;7.112;2022-08-25T13:17:53;5.17;;;4.20;;
313;SDS011;143;51.634;7.112;2022-08-25T13:20:22;5.47;;;4.30;;
313;SDS011;143;51.634;7.112;2022-08-25T13:22:51;7.87;;;4.30;;
313;SDS011;143;51.634;7.112;2022-08-25T13:25:21;7.60;;;4.70;;
313;SDS011;143;51.634;7.112;2022-08-25T13:27:51;5.17;;;4.37;;
313;SDS011;143;51.634;7.112;2022-08-25T13:30:24;6.13;;;4.30;;
313;SDS011;143;51.634;7.112;2022-08-25T13:32:55;8.10;;;4.43;;
313;SDS011;143;51.634;7.112;2022-08-25T13:35:25;6.77;;;4.80;;
313;SDS011;143;51.634;7.112;2022-08-25T13:37:54;11.50;;;4.37;;
313;SDS011;143;51.634;7.112;2022-08-25T13:40:39;6.87;;;4.70;;
313;SDS011;143;51.634;7.112;2022-08-25T13:43:06;5.67;;;4.57;;
313;SDS011;143;51.634;7.112;2022-08-25T13:45:39;7.43;;;4.40;;
313;SDS011;143;51.634;7.112;2022-08-25T13:48:10;11.57;;;4.13;;
313;SDS011;143;51.634;7.112;2022-08-25T13:50:38;6.20;;;4.20;;
313;SDS011;143;51.634;7.112;2022-08-25T13:53:06;13.37;;;4.90;;
313;SDS011;143;51.634;7.112;2022-08-25T13:58:11;7.77;;;4.53;;
313;SDS011;143;51.634;7.112;2022-08-25T14:01:08;8.10;;;4.57;;
313;SDS011;143;51.634;7.112;2022-08-25T14:03:50;12.33;;;4.60;;
313;SDS011;143;51.634;7.112;2022-08-25T14:06:19;5.10;;;4.17;;
313;SDS011;143;51.634;7.112;2022-08-25T14:14:00;8.43;;;4.10;;
313;SDS011;143;51.634;7.112;2022-08-25T14:16:30;7.73;;;4.90;;
313;SDS011;143;51.634;7.112;2022-08-25T14:18:59;8.70;;;5.10;;
313;SDS011;143;51.634;7.112;2022-08-25T14:21:29;6.37;;;3.77;;
313;SDS011;143;51.634;7.112;2022-08-25T14:23:58;5.73;;;4.17;;
313;SDS011;143;51.634;7.112;2022-08-25T14:26:23;5.60;;;4.37;;
313;SDS011;143;51.634;7.112;2022-08-25T14:28:50;4.33;;;3.73;;
313;SDS011;143;51.634;7.112;2022-08-25T14:31:22;7.10;;;4.40;;
313;SDS011;143;51.634;7.112;2022-08-25T14:33:58;9.83;;;4.20;;
313;SDS011;143;51.634;7.112;2022-08-25T14:36:27;10.73;;;4.93;;
313;SDS011;143;51.634;7.112;2022-08-25T14:38:54;7.47;;;4.20;;
313;SDS011;143;51.634;7.112;2022-08-25T14:41:19;6.17;;;3.73;;
313;SDS011;143;51.634;7.112;2022-08-25T14:43:47;7.63;;;4.10;;
313;SDS011;143;51.634;7.112;2022-08-25T14:46:26;6.90;;;4.30;;
313;SDS011;143;51.634;7.112;2022-08-25T14:48:57;8.03;;;4.30;;
313;SDS011;143;51.634;7.112;2022-08-25T14:51:25;5.63;;;4.20;;
313;SDS011;143;51.634;7.112;2022-08-25T14:53:54;6.67;;;3.87;;
313;SDS011;143;51.634;7.112;2022-08-25T14:56:24;7.03;;;4.07;;
313;SDS011;143;51.634;7.112;2022-08-25T14:58:50;9.37;;;4.10;;
313;SDS011;143;51.634;7.112;2022-08-25T15:01:16;11.80;;;4.00;;
313;SDS011;143;51.634;7.112;2022-08-25T15:03:45;7.80;;;4.30;;
313;SDS011;143;51.634;7.112;2022-08-25T15:06:13;9.27;;;3.90;;
313;SDS011;143;51.634;7.112;2022-08-25T15:08:40;7.07;;;4.43;;
313;SDS011;143;51.634;7.112;2022-08-25T15:11:27;7.23;;;3.97;;
313;SDS011;143;51.634;7.112;2022-08-25T15:13:54;8.43;;;3.30;;
313;SDS011;143;51.634;7.112;2022-08-25T15:16:24;7.20;;;4.13;;
313;SDS011;143;51.634;7.112;2022-08-25T15:18:56;8.20;;;4.17;;
313;SDS011;143;51.634;7.112;2022-08-25T15:21:22;8.90;;;4.50;;
313;SDS011;143;51.634;7.112;2022-08-25T15:23:48;5.80;;;3.73;;
313;SDS011;143;51.634;7.112;2022-08-25T15:26:13;8.43;;;4.60;;
313;SDS011;143;51.634;7.112;2022-08-25T15:28:42;7.03;;;4.63;;
313;SDS011;143;51.634;7.112;2022-08-25T15:31:10;5.43;;;3.93;;
313;SDS011;143;51.634;7.112;2022-08-25T15:33:36;5.40;;;3.90;;
313;SDS011;143;51.634;7.112;2022-08-25T15:36:03;6.07;;;4.23;;
313;SDS011;143;51.634;7.112;2022-08-25T15:38:37;6.70;;;4.07;;
313;SDS011;143;51.634;7.112;2022-08-25T15:41:04;8.57;;;4.13;;
313;SDS011;143;51.634;7.112;2022-08-25T15:43:32;9.47;;;4.30;;
313;SDS011;143;51.634;7.112;2022-08-25T15:45:58;7.70;;;4.10;;
313;SDS011;143;51.634;7.112;2022-08-25T15:48:24;6.30;;;3.97;;
313;SDS011;143;51.634;7.112;2022-08-25T15:50:53;8.20;;;3.60;;
313;SDS011;143;51.634;7.112;2022-08-25T15:53:20;10.70;;;3.80;;
313;SDS011;143;51.634;7.112;2022-08-25T15:55:47;5.60;;;4.10;;
313;SDS011;143;51.634;7.112;2022-08-25T15:58:14;5.50;;;3.67;;
313;SDS011;143;51.634;7.112;2022-08-25T16:00:41;5.23;;;3.77;;
313;SDS011;143;51.634;7.112;2022-08-25T16:03:08;6.67;;;4.17;;
313;SDS011;143;51.634;7.112;2022-08-25T16:05:34;7.40;;;3.80;;
313;SDS011;143;51.634;7.112;2022-08-25T16:08:01;6.03;;;3.93;;
313;SDS011;143;51.634;7.112;2022-08-25T16:10:27;9.37;;;3.87;;
313;SDS011;143;51.634;7.112;2022-08-25T16:12:56;5.73;;;4.00;;
313;SDS011;143;51.634;7.112;2022-08-25T16:15:22;5.83;;;3.90;;
313;SDS011;143;51.634;7.112;2022-08-25T16:17:47;7.90;;;4.27;;
313;SDS011;143;51.634;7.112;2022-08-25T16:20:14;8.20;;;3.97;;
313;SDS011;143;51.634;7.112;2022-08-25T16:22:41;8.47;;;3.80;;
313;SDS011;143;51.634;7.112;2022-08-25T16:25:09;7.03;;;4.13;;
313;SDS011;143;51.634;7.112;2022-08-25T16:27:35;7.80;;;3.90;;
313;SDS011;143;51.634;7.112;2022-08-25T16:30:01;9.40;;;4.50;;
313;SDS011;143;51.634;7.112;2022-08-25T16:32:26;7.63;;;4.27;;
313;SDS011;143;51.634;7.112;2022-08-25T16:34:52;7.00;;;4.30;;
313;SDS011;143;51.634;7.112;2022-08-25T16:37:18;10.17;;;4.53;;
313;SDS011;143;51.634;7.112;2022-08-25T16:39:43;4.90;;;4.10;;
313;SDS011;143;51.634;7.112;2022-08-25T16:42:10;8.73;;;4.67;;
313;SDS011;143;51.634;7.112;2022-08-25T16:44:36;5.30;;;4.10;;
313;SDS011;143;51.634;7.112;2022-08-25T16:47:04;5.63;;;4.03;;
313;SDS011;143;51.634;7.112;2022-08-25T16:49:30;7.40;;;4.90;;
313;SDS011;143;51.634;7.112;2022-08-25T16:51:56;5.43;;;3.80;;
313;SDS011;143;51.634;7.112;2022-08-25T16:54:21;8.70;;;4.30;;
313;SDS011;143;51.634;7.112;2022-08-25T16:57:06;10.83;;;4.73;;
313;SDS011;143;51.634;7.112;2022-08-25T16:59:32;4.50;;;3.87;;
313;SDS011;143;51.634;7.112;2022-08-25T17:01:57;5.43;;;4.00;;
313;SDS011;143;51.634;7.112;2022-08-25T17:04:23;5.23;;;4.47;;
313;SDS011;143;51.634;7.112;2022-08-25T17:06:49;5.90;;;4.17;;
313;SDS011;143;51.634;7.112;2022-08-25T17:09:15;10.23;;;4.30;;
313;SDS011;143;51.634;7.112;2022-08-25T17:11:43;6.60;;;4.27;;
313;SDS011;143;51.634;7.112;2022-08-25T17:14:12;9.53;;;4.23;;
313;SDS011;143;51.634;7.112;2022-08-25T17:16:40;8.33;;;4.47;;
313;SDS011;143;51.634;7.112;2022-08-25T17:19:07;5.30;;;3.67;;
313;SDS011;143;51.634;7.112;2022-08-25T17:21:36;9.70;;;5.00;;
313;SDS011;143;51.634;7.112;2022-08-25T17:24:04;7.43;;;4.07;;
313;SDS011;143;51.634;7.112;2022-08-25T17:26:31;5.83;;;4.10;;
313;SDS011;143;51.634;7.112;2022-08-25T17:28:57;11.70;;;4.53;;
313;SDS011;143;51.634;7.112;2022-08-25T17:31:25;11.83;;;5.30;;
313;SDS011;143;51.634;7.112;2022-08-25T17:33:52;6.40;;;4.30;;
313;SDS011;143;51.634;7.112;2022-08-25T17:36:17;6.90;;;4.00;;
313;SDS011;143;51.634;7.112;2022-08-25T17:38:43;6.60;;;4.07;;
313;SDS011;143;51.634;7.112;2022-08-25T17:41:09;7.63;;;4.73;;
313;SDS011;143;51.634;7.112;2022-08-25T17:43:37;7.23;;;4.57;;
313;SDS011;143;51.634;7.112;2022-08-25T17:46:05;6.10;;;4.10;;
313;SDS011;143;51.634;7.112;2022-08-25T17:48:31;6.30;;;4.07;;
313;SDS011;143;51.634;7.112;2022-08-25T17:50:59;7.87;;;4.77;;
313;SDS011;143;51.634;7.112;2022-08-25T17:53:25;6.57;;;4.20;;
313;SDS011;143;51.634;7.112;2022-08-25T17:55:58;8.30;;;4.17;;
313;SDS011;143;51.634;7.112;2022-08-25T17:58:26;5.97;;;4.10;;